sensor_id;sensor_type;location;lat;lon;timestamp;pressure;altitude;pressure_sealevel;temperature;humidity
69570;BME280;56781;42.292;23.146;2022-07-22T00:00:55;95655.78;;;15.60;77.29
69570;BME280;56781;42.292;23.146;2022-07-22T00:03:22;95598.22;;;15.56;75.58
69570;BME280;56781;42.292;23.146;2022-07-22T00:05:50;95625.22;;;15.47;77.33
69570;BME280;56781;42.292;23.146;2022-07-22T00:08:17;95608.84;;;15.31;77.88
69570;BME280;56781;42.292;23.146;2022-07-22T00:10:44;95645.66;;;15.57;77.33
69570;BME280;56781;42.292;23.146;2022-07-22T00:13:12;95648.06;;;15.49;77.97
69570;BME280;56781;42.292;23.146;2022-07-22T00:15:40;95647.19;;;15.66;77.27
69570;BME280;56781;42.292;23.146;2022-07-22T00:18:07;95614.16;;;15.19;77.92
69570;BME280;56781;42.292;23.146;2022-07-22T00:20:34;95625.44;;;15.42;77.32
69570;BME280;56781;42.292;23.146;2022-07-22T00:23:01;95596.78;;;15.07;78.83
69570;BME280;56781;42.292;23.146;2022-07-22T00:25:29;95652.28;;;15.38;79.25
69570;BME280;56781;42.292;23.146;2022-07-22T00:27:57;95618.63;;;15.15;79.16
69570;BME280;56781;42.292;23.146;2022-07-22T00:30:24;95630.69;;;15.17;79.74
69570;BME280;56781;42.292;23.146;2022-07-22T00:32:51;95606.84;;;14.98;79.91
69570;BME280;56781;42.292;23.146;2022-07-22T00:35:18;95630.06;;;15.12;79.53
69570;BME280;56781;42.292;23.146;2022-07-22T00:37:46;95652.38;;;15.21;80.55
69570;BME280;56781;42.292;23.146;2022-07-22T00:40:13;95655.81;;;15.30;79.25
69570;BME280;56781;42.292;23.146;2022-07-22T00:42:40;95658.59;;;15.42;78.34
69570;BME280;56781;42.292;23.146;2022-07-22T00:45:08;95602.47;;;15.15;77.16
69570;BME280;56781;42.292;23.146;2022-07-22T00:47:36;95663.53;;;15.11;79.22
69570;BME280;56781;42.292;23.146;2022-07-22T00:50:04;95654.94;;;15.17;78.22
69570;BME280;56781;42.292;23.146;2022-07-22T00:52:32;95607.44;;;14.66;78.97
69570;BME280;56781;42.292;23.146;2022-07-22T00:55:00;95645.09;;;14.83;79.65
69570;BME280;56781;42.292;23.146;2022-07-22T00:57:28;95648.25;;;14.94;79.54
69570;BME280;56781;42.292;23.146;2022-07-22T00:59:55;95644.16;;;14.88;79.98
69570;BME280;56781;42.292;23.146;2022-07-22T01:02:22;95653.50;;;14.90;79.81
69570;BME280;56781;42.292;23.146;2022-07-22T01:04:50;95651.53;;;14.99;78.53
69570;BME280;56781;42.292;23.146;2022-07-22T01:07:17;95655.72;;;14.88;79.58
69570;BME280;56781;42.292;23.146;2022-07-22T01:09:45;95609.88;;;14.58;78.20
69570;BME280;56781;42.292;23.146;2022-07-22T01:12:13;95588.78;;;14.60;77.25
69570;BME280;56781;42.292;23.146;2022-07-22T01:14:40;95649.63;;;14.61;78.86
69570;BME280;56781;42.292;23.146;2022-07-22T01:17:07;95654.06;;;14.57;79.29
69570;BME280;56781;42.292;23.146;2022-07-22T01:19:36;95641.75;;;14.39;80.41
69570;BME280;56781;42.292;23.146;2022-07-22T01:22:05;95652.63;;;14.51;81.23
69570;BME280;56781;42.292;23.146;2022-07-22T01:24:32;95619.41;;;14.30;81.08
69570;BME280;56781;42.292;23.146;2022-07-22T01:27:00;95591.59;;;14.08;81.83
69570;BME280;56781;42.292;23.146;2022-07-22T01:29:29;95645.25;;;14.22;82.11
69570;BME280;56781;42.292;23.146;2022-07-22T01:31:56;95656.84;;;14.23;81.77
69570;BME280;56781;42.292;23.146;2022-07-22T01:34:24;95627.53;;;14.21;80.88
69570;BME280;56781;42.292;23.146;2022-07-22T01:36:51;95657.47;;;14.19;82.02
69570;BME280;56781;42.292;23.146;2022-07-22T01:39:19;95634.34;;;14.18;81.25
69570;BME280;56781;42.292;23.146;2022-07-22T01:41:46;95668.81;;;14.43;80.75
69570;BME280;56781;42.292;23.146;2022-07-22T01:44:14;95637.97;;;14.14;82.06
69570;BME280;56781;42.292;23.146;2022-07-22T01:46:41;95631.16;;;14.16;81.44
69570;BME280;56781;42.292;23.146;2022-07-22T01:49:09;95663.47;;;14.34;81.17
69570;BME280;56781;42.292;23.146;2022-07-22T01:51:36;95603.00;;;14.05;81.21
69570;BME280;56781;42.292;23.146;2022-07-22T01:54:03;95661.97;;;14.62;78.56
69570;BME280;56781;42.292;23.146;2022-07-22T01:56:31;95667.59;;;14.23;79.92
69570;BME280;56781;42.292;23.146;2022-07-22T01:58:58;95665.72;;;14.14;80.99
69570;BME280;56781;42.292;23.146;2022-07-22T02:01:26;95668.38;;;14.06;81.63
69570;BME280;56781;42.292;23.146;2022-07-22T02:03:53;95615.56;;;13.66;82.40
69570;BME280;56781;42.292;23.146;2022-07-22T02:06:21;95653.38;;;13.96;81.47
69570;BME280;56781;42.292;23.146;2022-07-22T02:08:48;95630.44;;;13.55;83.18
69570;BME280;56781;42.292;23.146;2022-07-22T02:11:15;95682.03;;;13.74;82.97
69570;BME280;56781;42.292;23.146;2022-07-22T02:13:42;95665.72;;;13.80;81.87
69570;BME280;56781;42.292;23.146;2022-07-22T02:16:10;95650.03;;;13.64;83.27
69570;BME280;56781;42.292;23.146;2022-07-22T02:18:44;95665.56;;;13.76;82.84
69570;BME280;56781;42.292;23.146;2022-07-22T02:21:12;95634.53;;;13.52;83.34
69570;BME280;56781;42.292;23.146;2022-07-22T02:23:39;95678.25;;;13.84;81.80
69570;BME280;56781;42.292;23.146;2022-07-22T02:26:06;95678.84;;;13.81;82.66
69570;BME280;56781;42.292;23.146;2022-07-22T02:28:34;95667.78;;;13.74;82.97
69570;BME280;56781;42.292;23.146;2022-07-22T02:31:02;95653.69;;;13.68;83.20
69570;BME280;56781;42.292;23.146;2022-07-22T02:33:29;95685.97;;;13.86;83.42
69570;BME280;56781;42.292;23.146;2022-07-22T02:35:58;95609.38;;;13.48;82.97
69570;BME280;56781;42.292;23.146;2022-07-22T02:38:25;95686.13;;;14.15;83.84
69570;BME280;56781;42.292;23.146;2022-07-22T02:40:52;95670.13;;;14.10;81.54
69570;BME280;56781;42.292;23.146;2022-07-22T02:43:20;95684.88;;;14.13;80.85
69570;BME280;56781;42.292;23.146;2022-07-22T02:45:47;95655.22;;;13.43;82.75
69570;BME280;56781;42.292;23.146;2022-07-22T02:48:14;95684.38;;;13.67;82.89
69570;BME280;56781;42.292;23.146;2022-07-22T02:50:46;95654.59;;;13.38;82.55
69570;BME280;56781;42.292;23.146;2022-07-22T02:53:14;95661.88;;;13.46;80.87
69570;BME280;56781;42.292;23.146;2022-07-22T02:55:41;95689.91;;;13.53;81.14
69570;BME280;56781;42.292;23.146;2022-07-22T02:58:09;95658.16;;;13.16;81.36
69570;BME280;56781;42.292;23.146;2022-07-22T03:00:36;95689.25;;;13.48;81.04
69570;BME280;56781;42.292;23.146;2022-07-22T03:03:07;95666.03;;;13.52;80.66
69570;BME280;56781;42.292;23.146;2022-07-22T03:05:34;95688.75;;;13.37;82.35
69570;BME280;56781;42.292;23.146;2022-07-22T03:08:01;95663.72;;;13.19;82.79
69570;BME280;56781;42.292;23.146;2022-07-22T03:10:28;95627.28;;;12.96;85.02
69570;BME280;56781;42.292;23.146;2022-07-22T03:12:55;95686.91;;;13.64;81.97
69570;BME280;56781;42.292;23.146;2022-07-22T03:15:22;95662.34;;;13.39;82.17
69570;BME280;56781;42.292;23.146;2022-07-22T03:17:49;95700.50;;;13.50;83.05
69570;BME280;56781;42.292;23.146;2022-07-22T03:20:17;95670.78;;;13.55;80.63
69570;BME280;56781;42.292;23.146;2022-07-22T03:22:44;95651.34;;;13.01;82.89
69570;BME280;56781;42.292;23.146;2022-07-22T03:25:11;95679.47;;;12.95;83.78
69570;BME280;56781;42.292;23.146;2022-07-22T03:27:38;95700.72;;;13.22;83.48
69570;BME280;56781;42.292;23.146;2022-07-22T03:30:05;95636.59;;;12.90;83.17
69570;BME280;56781;42.292;23.146;2022-07-22T03:32:33;95700.91;;;13.26;85.27
69570;BME280;56781;42.292;23.146;2022-07-22T03:35:00;95699.69;;;13.41;84.40
69570;BME280;56781;42.292;23.146;2022-07-22T03:37:30;95695.44;;;13.48;82.61
69570;BME280;56781;42.292;23.146;2022-07-22T03:39:57;95701.56;;;13.32;83.58
69570;BME280;56781;42.292;23.146;2022-07-22T03:42:24;95702.31;;;13.23;84.40
69570;BME280;56781;42.292;23.146;2022-07-22T03:44:51;95679.91;;;13.28;83.50
69570;BME280;56781;42.292;23.146;2022-07-22T03:47:19;95675.41;;;13.23;83.17
69570;BME280;56781;42.292;23.146;2022-07-22T03:49:47;95696.38;;;13.44;83.53
69570;BME280;56781;42.292;23.146;2022-07-22T03:52:14;95663.88;;;13.23;83.74
69570;BME280;56781;42.292;23.146;2022-07-22T03:54:42;95717.78;;;13.58;83.67
69570;BME280;56781;42.292;23.146;2022-07-22T03:57:10;95685.28;;;13.37;83.73
69570;BME280;56781;42.292;23.146;2022-07-22T03:59:37;95714.00;;;13.76;82.68
69570;BME280;56781;42.292;23.146;2022-07-22T04:02:04;95692.09;;;13.43;84.28
69570;BME280;56781;42.292;23.146;2022-07-22T04:04:32;95709.00;;;13.35;85.99
69570;BME280;56781;42.292;23.146;2022-07-22T04:06:59;95702.38;;;13.41;86.08
69570;BME280;56781;42.292;23.146;2022-07-22T04:09:26;95717.28;;;13.64;85.53
69570;BME280;56781;42.292;23.146;2022-07-22T04:11:53;95715.25;;;13.70;85.59
69570;BME280;56781;42.292;23.146;2022-07-22T04:14:20;95706.38;;;13.69;85.56
69570;BME280;56781;42.292;23.146;2022-07-22T04:16:48;95708.78;;;13.97;85.01
69570;BME280;56781;42.292;23.146;2022-07-22T04:19:15;95706.53;;;14.16;84.33
69570;BME280;56781;42.292;23.146;2022-07-22T04:21:42;95700.38;;;14.33;84.29
69570;BME280;56781;42.292;23.146;2022-07-22T04:24:09;95716.03;;;14.40;84.67
69570;BME280;56781;42.292;23.146;2022-07-22T04:26:37;95720.16;;;14.46;84.39
69570;BME280;56781;42.292;23.146;2022-07-22T04:29:05;95710.03;;;14.60;85.25
69570;BME280;56781;42.292;23.146;2022-07-22T04:31:32;95664.84;;;14.49;84.85
69570;BME280;56781;42.292;23.146;2022-07-22T04:33:59;95660.22;;;14.67;83.56
69570;BME280;56781;42.292;23.146;2022-07-22T04:36:26;95673.28;;;14.94;82.93
69570;BME280;56781;42.292;23.146;2022-07-22T04:38:53;95603.56;;;14.84;82.20
69570;BME280;56781;42.292;23.146;2022-07-22T04:41:21;95699.75;;;15.69;81.69
69570;BME280;56781;42.292;23.146;2022-07-22T04:43:48;95720.53;;;15.89;80.27
69570;BME280;56781;42.292;23.146;2022-07-22T04:46:15;95686.03;;;15.95;80.03
69570;BME280;56781;42.292;23.146;2022-07-22T04:48:42;95678.13;;;16.11;80.17
69570;BME280;56781;42.292;23.146;2022-07-22T04:51:09;95648.97;;;16.04;78.71
69570;BME280;56781;42.292;23.146;2022-07-22T04:53:36;95696.69;;;16.67;78.36
69570;BME280;56781;42.292;23.146;2022-07-22T04:56:13;95665.03;;;16.67;77.16
69570;BME280;56781;42.292;23.146;2022-07-22T04:58:40;95709.06;;;17.25;76.10
69570;BME280;56781;42.292;23.146;2022-07-22T05:01:08;95687.41;;;17.25;73.90
69570;BME280;56781;42.292;23.146;2022-07-22T05:03:38;95677.72;;;17.37;73.27
69570;BME280;56781;42.292;23.146;2022-07-22T05:06:05;95705.09;;;17.84;72.94
69570;BME280;56781;42.292;23.146;2022-07-22T05:08:33;95676.19;;;17.88;72.28
69570;BME280;56781;42.292;23.146;2022-07-22T05:10:59;95709.22;;;18.34;71.23
69570;BME280;56781;42.292;23.146;2022-07-22T05:13:26;95705.28;;;18.60;70.17
69570;BME280;56781;42.292;23.146;2022-07-22T05:16:02;95715.97;;;18.81;69.80
69570;BME280;56781;42.292;23.146;2022-07-22T05:18:29;95662.19;;;18.71;69.18
69570;BME280;56781;42.292;23.146;2022-07-22T05:20:56;95710.28;;;19.34;68.65
69570;BME280;56781;42.292;23.146;2022-07-22T05:23:23;95706.13;;;19.56;67.96
69570;BME280;56781;42.292;23.146;2022-07-22T05:25:50;95705.34;;;19.71;66.81
69570;BME280;56781;42.292;23.146;2022-07-22T05:28:17;95682.28;;;19.65;66.90
69570;BME280;56781;42.292;23.146;2022-07-22T05:30:47;95663.84;;;19.70;65.87
69570;BME280;56781;42.292;23.146;2022-07-22T05:33:14;95711.00;;;20.17;65.06
69570;BME280;56781;42.292;23.146;2022-07-22T05:35:41;95662.66;;;20.07;62.88
69570;BME280;56781;42.292;23.146;2022-07-22T05:38:08;95662.56;;;20.23;64.13
69570;BME280;56781;42.292;23.146;2022-07-22T05:40:35;95680.53;;;20.66;61.76
69570;BME280;56781;42.292;23.146;2022-07-22T05:43:02;95718.03;;;20.99;62.42
69570;BME280;56781;42.292;23.146;2022-07-22T05:45:32;95710.38;;;21.28;61.02
69570;BME280;56781;42.292;23.146;2022-07-22T05:47:59;95704.31;;;21.38;61.03
69570;BME280;56781;42.292;23.146;2022-07-22T05:50:28;95706.84;;;21.51;60.42
69570;BME280;56781;42.292;23.146;2022-07-22T05:52:55;95708.75;;;21.73;60.53
69570;BME280;56781;42.292;23.146;2022-07-22T05:55:22;95694.63;;;21.94;58.29
69570;BME280;56781;42.292;23.146;2022-07-22T05:57:49;95690.59;;;22.14;58.72
69570;BME280;56781;42.292;23.146;2022-07-22T06:00:18;95715.91;;;22.42;57.25
69570;BME280;56781;42.292;23.146;2022-07-22T06:02:47;95705.69;;;22.69;57.18
69570;BME280;56781;42.292;23.146;2022-07-22T06:08:01;95659.38;;;22.76;52.80
69570;BME280;56781;42.292;23.146;2022-07-22T06:10:28;95696.41;;;23.14;54.37
69570;BME280;56781;42.292;23.146;2022-07-22T06:12:55;95698.63;;;23.42;51.33
69570;BME280;56781;42.292;23.146;2022-07-22T06:15:22;95690.47;;;23.53;51.79
69570;BME280;56781;42.292;23.146;2022-07-22T06:17:52;95674.25;;;23.71;52.11
69570;BME280;56781;42.292;23.146;2022-07-22T06:20:19;95690.47;;;24.05;51.60
69570;BME280;56781;42.292;23.146;2022-07-22T06:22:46;95680.81;;;24.36;49.63
69570;BME280;56781;42.292;23.146;2022-07-22T06:25:14;95663.22;;;24.33;49.92
69570;BME280;56781;42.292;23.146;2022-07-22T06:28:01;95686.06;;;24.77;47.64
69570;BME280;56781;42.292;23.146;2022-07-22T06:30:28;95625.00;;;24.62;47.84
69570;BME280;56781;42.292;23.146;2022-07-22T06:32:55;95629.34;;;24.88;48.31
69570;BME280;56781;42.292;23.146;2022-07-22T06:35:23;95674.78;;;25.29;46.54
69570;BME280;56781;42.292;23.146;2022-07-22T06:37:53;95660.69;;;25.23;47.49
69570;BME280;56781;42.292;23.146;2022-07-22T06:40:32;95660.69;;;25.55;46.26
69570;BME280;56781;42.292;23.146;2022-07-22T06:43:00;95667.66;;;26.03;45.36
69570;BME280;56781;42.292;23.146;2022-07-22T06:45:27;95668.34;;;26.28;43.55
69570;BME280;56781;42.292;23.146;2022-07-22T06:47:54;95674.97;;;26.38;43.99
69570;BME280;56781;42.292;23.146;2022-07-22T06:50:21;95665.88;;;26.63;43.14
69570;BME280;56781;42.292;23.146;2022-07-22T06:52:50;95669.59;;;26.94;42.13
69570;BME280;56781;42.292;23.146;2022-07-22T06:55:17;95668.03;;;26.96;43.95
69570;BME280;56781;42.292;23.146;2022-07-22T06:57:44;95651.44;;;27.11;43.70
69570;BME280;56781;42.292;23.146;2022-07-22T07:00:11;95657.63;;;27.26;43.40
69570;BME280;56781;42.292;23.146;2022-07-22T07:02:39;95607.38;;;27.25;43.02
69570;BME280;56781;42.292;23.146;2022-07-22T07:05:06;95650.41;;;27.88;42.97
69570;BME280;56781;42.292;23.146;2022-07-22T07:07:45;95648.72;;;28.32;42.41
69570;BME280;56781;42.292;23.146;2022-07-22T07:10:12;95630.63;;;28.31;40.89
69570;BME280;56781;42.292;23.146;2022-07-22T07:12:42;95600.59;;;28.13;41.30
69570;BME280;56781;42.292;23.146;2022-07-22T07:15:10;95620.97;;;28.49;40.53
69570;BME280;56781;42.292;23.146;2022-07-22T07:17:51;95648.66;;;28.97;39.66
69570;BME280;56781;42.292;23.146;2022-07-22T07:20:19;95608.00;;;28.50;40.25
69570;BME280;56781;42.292;23.146;2022-07-22T07:22:46;95610.44;;;28.71;40.02
69570;BME280;56781;42.292;23.146;2022-07-22T07:25:13;95653.97;;;29.11;38.64
69570;BME280;56781;42.292;23.146;2022-07-22T07:27:49;95593.03;;;29.05;38.10
69570;BME280;56781;42.292;23.146;2022-07-22T07:30:20;95645.66;;;29.85;37.37
69570;BME280;56781;42.292;23.146;2022-07-22T07:32:47;95645.16;;;29.90;36.96
69570;BME280;56781;42.292;23.146;2022-07-22T07:35:14;95620.38;;;29.87;37.33
69570;BME280;56781;42.292;23.146;2022-07-22T07:37:41;95645.25;;;30.07;36.56
69570;BME280;56781;42.292;23.146;2022-07-22T07:40:09;95590.81;;;29.87;35.81
69570;BME280;56781;42.292;23.146;2022-07-22T07:42:37;95644.94;;;30.21;35.62
69570;BME280;56781;42.292;23.146;2022-07-22T07:45:13;95602.84;;;29.97;37.03
69570;BME280;56781;42.292;23.146;2022-07-22T07:47:40;95641.09;;;30.38;34.49
69570;BME280;56781;42.292;23.146;2022-07-22T07:50:08;95606.19;;;30.28;35.66
69570;BME280;56781;42.292;23.146;2022-07-22T07:52:44;95603.13;;;30.59;34.05
69570;BME280;56781;42.292;23.146;2022-07-22T07:55:18;95647.75;;;30.77;34.77
69570;BME280;56781;42.292;23.146;2022-07-22T07:57:46;95603.94;;;30.59;35.81
69570;BME280;56781;42.292;23.146;2022-07-22T08:00:22;95628.69;;;30.83;34.99
69570;BME280;56781;42.292;23.146;2022-07-22T08:02:51;95634.00;;;31.10;35.73
69570;BME280;56781;42.292;23.146;2022-07-22T08:05:18;95635.56;;;31.60;36.28
69570;BME280;56781;42.292;23.146;2022-07-22T08:07:49;95618.09;;;31.47;31.12
69570;BME280;56781;42.292;23.146;2022-07-22T08:10:16;95628.97;;;31.54;33.75
69570;BME280;56781;42.292;23.146;2022-07-22T08:13:03;95627.22;;;31.76;33.78
69570;BME280;56781;42.292;23.146;2022-07-22T08:15:31;95593.31;;;31.43;32.31
69570;BME280;56781;42.292;23.146;2022-07-22T08:17:59;95588.44;;;31.47;32.99
69570;BME280;56781;42.292;23.146;2022-07-22T08:20:27;95623.66;;;31.92;31.94
69570;BME280;56781;42.292;23.146;2022-07-22T08:22:55;95630.94;;;32.15;31.39
69570;BME280;56781;42.292;23.146;2022-07-22T08:25:23;95607.63;;;31.54;32.08
69570;BME280;56781;42.292;23.146;2022-07-22T08:27:50;95591.59;;;31.78;31.07
69570;BME280;56781;42.292;23.146;2022-07-22T08:30:18;95602.66;;;31.78;31.09
69570;BME280;56781;42.292;23.146;2022-07-22T08:32:46;95577.50;;;32.02;31.22
69570;BME280;56781;42.292;23.146;2022-07-22T08:35:13;95601.84;;;32.36;31.53
69570;BME280;56781;42.292;23.146;2022-07-22T08:37:40;95605.22;;;32.57;30.40
69570;BME280;56781;42.292;23.146;2022-07-22T08:40:08;95619.44;;;32.72;32.08
69570;BME280;56781;42.292;23.146;2022-07-22T08:42:40;95585.91;;;32.53;30.89
69570;BME280;56781;42.292;23.146;2022-07-22T08:45:08;95626.72;;;32.53;30.16
69570;BME280;56781;42.292;23.146;2022-07-22T08:47:50;95636.06;;;32.30;31.52
69570;BME280;56781;42.292;23.146;2022-07-22T08:50:18;95617.47;;;32.43;30.98
69570;BME280;56781;42.292;23.146;2022-07-22T08:52:47;95624.63;;;32.70;32.24
69570;BME280;56781;42.292;23.146;2022-07-22T08:55:16;95627.88;;;32.94;30.88
69570;BME280;56781;42.292;23.146;2022-07-22T08:57:47;95622.63;;;32.57;31.97
69570;BME280;56781;42.292;23.146;2022-07-22T09:00:17;95627.41;;;32.70;30.76
69570;BME280;56781;42.292;23.146;2022-07-22T09:02:45;95618.88;;;32.77;31.50
69570;BME280;56781;42.292;23.146;2022-07-22T09:05:14;95620.44;;;33.03;32.58
69570;BME280;56781;42.292;23.146;2022-07-22T09:08:01;95591.03;;;32.93;31.22
69570;BME280;56781;42.292;23.146;2022-07-22T09:10:33;95622.31;;;32.94;31.46
69570;BME280;56781;42.292;23.146;2022-07-22T09:13:05;95599.34;;;32.93;30.82
69570;BME280;56781;42.292;23.146;2022-07-22T09:15:35;95598.78;;;32.98;30.93
69570;BME280;56781;42.292;23.146;2022-07-22T09:18:04;95624.19;;;32.84;30.91
69570;BME280;56781;42.292;23.146;2022-07-22T09:20:34;95617.53;;;32.94;32.96
69570;BME280;56781;42.292;23.146;2022-07-22T09:23:08;95592.78;;;32.87;33.05
69570;BME280;56781;42.292;23.146;2022-07-22T09:25:38;95615.44;;;33.11;32.89
69570;BME280;56781;42.292;23.146;2022-07-22T09:30:38;95601.31;;;33.31;31.73
69570;BME280;56781;42.292;23.146;2022-07-22T09:33:08;95600.94;;;33.54;32.27
69570;BME280;56781;42.292;23.146;2022-07-22T09:35:36;95594.81;;;33.60;31.71
69570;BME280;56781;42.292;23.146;2022-07-22T09:38:06;95596.22;;;33.17;30.80
69570;BME280;56781;42.292;23.146;2022-07-22T09:40:37;95592.91;;;32.96;30.22
69570;BME280;56781;42.292;23.146;2022-07-22T09:43:15;95595.47;;;33.16;32.80
69570;BME280;56781;42.292;23.146;2022-07-22T09:48:21;95585.38;;;33.09;32.02
69570;BME280;56781;42.292;23.146;2022-07-22T09:50:50;95584.94;;;32.98;31.62
69570;BME280;56781;42.292;23.146;2022-07-22T09:53:19;95586.03;;;33.14;31.85
69570;BME280;56781;42.292;23.146;2022-07-22T09:55:47;95571.25;;;33.17;30.56
69570;BME280;56781;42.292;23.146;2022-07-22T09:58:14;95547.38;;;33.19;31.55
69570;BME280;56781;42.292;23.146;2022-07-22T10:00:42;95542.72;;;33.29;32.48
69570;BME280;56781;42.292;23.146;2022-07-22T10:03:23;95543.19;;;33.15;30.17
69570;BME280;56781;42.292;23.146;2022-07-22T10:05:52;95590.47;;;33.71;30.92
69570;BME280;56781;42.292;23.146;2022-07-22T10:08:20;95585.09;;;33.77;28.18
69570;BME280;56781;42.292;23.146;2022-07-22T10:10:48;95563.50;;;33.59;29.67
69570;BME280;56781;42.292;23.146;2022-07-22T10:13:17;95576.34;;;33.66;27.38
69570;BME280;56781;42.292;23.146;2022-07-22T10:15:45;95575.72;;;33.62;25.60
69570;BME280;56781;42.292;23.146;2022-07-22T10:18:18;95579.53;;;33.55;27.34
69570;BME280;56781;42.292;23.146;2022-07-22T10:20:45;95575.06;;;33.58;27.61
69570;BME280;56781;42.292;23.146;2022-07-22T10:23:14;95563.53;;;33.46;25.98
69570;BME280;56781;42.292;23.146;2022-07-22T10:25:57;95561.59;;;33.69;26.52
69570;BME280;56781;42.292;23.146;2022-07-22T10:28:33;95553.50;;;33.62;28.33
69570;BME280;56781;42.292;23.146;2022-07-22T10:31:23;95555.84;;;33.85;26.06
69570;BME280;56781;42.292;23.146;2022-07-22T10:33:52;95525.50;;;33.69;26.10
69570;BME280;56781;42.292;23.146;2022-07-22T10:36:40;95515.78;;;33.73;27.09
69570;BME280;56781;42.292;23.146;2022-07-22T10:39:12;95520.53;;;33.64;25.97
69570;BME280;56781;42.292;23.146;2022-07-22T10:41:44;95532.06;;;33.84;24.69
69570;BME280;56781;42.292;23.146;2022-07-22T10:44:47;95553.84;;;34.08;26.25
69570;BME280;56781;42.292;23.146;2022-07-22T10:47:53;95512.94;;;33.86;25.36
69570;BME280;56781;42.292;23.146;2022-07-22T10:53:21;95552.16;;;34.32;24.88
69570;BME280;56781;42.292;23.146;2022-07-22T10:55:59;95536.28;;;34.11;25.19
69570;BME280;56781;42.292;23.146;2022-07-22T11:01:05;95552.41;;;33.81;28.53
69570;BME280;56781;42.292;23.146;2022-07-22T11:03:34;95545.41;;;33.20;28.15
69570;BME280;56781;42.292;23.146;2022-07-22T11:06:20;95548.75;;;33.15;28.80
69570;BME280;56781;42.292;23.146;2022-07-22T11:09:00;95503.50;;;33.40;27.42
69570;BME280;56781;42.292;23.146;2022-07-22T11:16:43;95534.06;;;33.84;26.32
69570;BME280;56781;42.292;23.146;2022-07-22T11:19:10;95539.06;;;34.11;25.52
69570;BME280;56781;42.292;23.146;2022-07-22T11:21:37;95548.06;;;34.15;25.73
69570;BME280;56781;42.292;23.146;2022-07-22T11:24:11;95541.28;;;34.25;26.72
69570;BME280;56781;42.292;23.146;2022-07-22T11:26:43;95540.75;;;34.08;26.42
69570;BME280;56781;42.292;23.146;2022-07-22T11:29:36;95468.84;;;33.66;26.89
69570;BME280;56781;42.292;23.146;2022-07-22T11:32:09;95524.75;;;34.22;26.01
69570;BME280;56781;42.292;23.146;2022-07-22T11:34:39;95513.19;;;34.23;24.67
69570;BME280;56781;42.292;23.146;2022-07-22T11:37:09;95504.84;;;34.23;25.77
69570;BME280;56781;42.292;23.146;2022-07-22T11:39:36;95499.19;;;34.05;25.13
69570;BME280;56781;42.292;23.146;2022-07-22T11:42:04;95539.59;;;34.28;26.06
69570;BME280;56781;42.292;23.146;2022-07-22T11:44:34;95526.41;;;34.10;26.08
69570;BME280;56781;42.292;23.146;2022-07-22T11:47:02;95529.56;;;34.21;25.52
69570;BME280;56781;42.292;23.146;2022-07-22T11:49:33;95523.50;;;34.45;27.82
69570;BME280;56781;42.292;23.146;2022-07-22T11:52:03;95512.97;;;34.39;27.49
69570;BME280;56781;42.292;23.146;2022-07-22T11:54:31;95524.56;;;34.47;28.22
69570;BME280;56781;42.292;23.146;2022-07-22T11:56:58;95523.91;;;34.34;26.98
69570;BME280;56781;42.292;23.146;2022-07-22T11:59:25;95493.06;;;34.10;26.48
69570;BME280;56781;42.292;23.146;2022-07-22T12:01:52;95519.13;;;34.34;27.11
69570;BME280;56781;42.292;23.146;2022-07-22T12:04:24;95503.25;;;34.13;26.18
69570;BME280;56781;42.292;23.146;2022-07-22T12:06:52;95503.47;;;34.28;25.25
69570;BME280;56781;42.292;23.146;2022-07-22T12:09:26;95517.94;;;34.54;25.16
69570;BME280;56781;42.292;23.146;2022-07-22T12:11:56;95522.56;;;34.48;23.64
69570;BME280;56781;42.292;23.146;2022-07-22T12:14:27;95498.31;;;34.17;24.48
69570;BME280;56781;42.292;23.146;2022-07-22T12:16:59;95508.91;;;34.31;23.58
69570;BME280;56781;42.292;23.146;2022-07-22T12:19:28;95505.22;;;34.34;23.85
69570;BME280;56781;42.292;23.146;2022-07-22T12:22:06;95514.19;;;34.38;23.03
69570;BME280;56781;42.292;23.146;2022-07-22T12:24:40;95511.75;;;34.50;22.33
69570;BME280;56781;42.292;23.146;2022-07-22T12:27:15;95510.19;;;34.39;22.75
69570;BME280;56781;42.292;23.146;2022-07-22T12:29:44;95510.81;;;34.43;20.59
69570;BME280;56781;42.292;23.146;2022-07-22T12:32:23;95503.97;;;34.35;21.00
69570;BME280;56781;42.292;23.146;2022-07-22T12:37:23;95497.81;;;34.40;22.50
69570;BME280;56781;42.292;23.146;2022-07-22T12:42:36;95502.28;;;34.38;21.80
69570;BME280;56781;42.292;23.146;2022-07-22T12:45:07;95475.97;;;34.20;22.14
69570;BME280;56781;42.292;23.146;2022-07-22T12:50:40;95494.13;;;34.43;23.72
69570;BME280;56781;42.292;23.146;2022-07-22T12:53:15;95503.72;;;34.42;24.17
69570;BME280;56781;42.292;23.146;2022-07-22T12:55:47;95467.22;;;34.31;24.70
69570;BME280;56781;42.292;23.146;2022-07-22T12:58:16;95459.16;;;34.24;24.16
69570;BME280;56781;42.292;23.146;2022-07-22T13:00:52;95505.56;;;34.46;23.86
69570;BME280;56781;42.292;23.146;2022-07-22T13:03:20;95498.25;;;34.39;23.64
69570;BME280;56781;42.292;23.146;2022-07-22T13:05:59;95500.28;;;34.38;23.42
69570;BME280;56781;42.292;23.146;2022-07-22T13:08:28;95451.94;;;34.05;23.90
69570;BME280;56781;42.292;23.146;2022-07-22T13:11:10;95459.72;;;34.10;24.79
69570;BME280;56781;42.292;23.146;2022-07-22T13:13:37;95493.63;;;34.36;25.48
69570;BME280;56781;42.292;23.146;2022-07-22T13:16:04;95483.09;;;34.31;24.43
69570;BME280;56781;42.292;23.146;2022-07-22T13:18:31;95500.88;;;34.33;24.00
69570;BME280;56781;42.292;23.146;2022-07-22T13:20:58;95496.22;;;34.30;25.14
69570;BME280;56781;42.292;23.146;2022-07-22T13:23:25;95475.47;;;34.13;24.87
69570;BME280;56781;42.292;23.146;2022-07-22T13:25:53;95495.47;;;34.30;24.56
69570;BME280;56781;42.292;23.146;2022-07-22T13:28:22;95507.34;;;34.30;25.32